sensor_id;sensor_type;location;lat;lon;timestamp;P1;durP1;ratioP1;P2;durP2;ratioP2
10309;SDS011;5200;43.236;27.986;2022-12-18T00:01:36;5.07;;;2.33;;
10309;SDS011;5200;43.236;27.986;2022-12-18T00:04:07;2.65;;;2.28;;
10309;SDS011;5200;43.236;27.986;2022-12-18T00:06:48;2.50;;;2.05;;
10309;SDS011;5200;43.236;27.986;2022-12-18T00:09:16;3.75;;;2.10;;
10309;SDS011;5200;43.236;27.986;2022-12-18T00:11:43;2.58;;;2.10;;
10309;SDS011;5200;43.236;27.986;2022-12-18T00:14:11;2.53;;;2.03;;
10309;SDS011;5200;43.236;27.986;2022-12-18T00:16:39;2.40;;;2.20;;
10309;SDS011;5200;43.236;27.986;2022-12-18T00:19:08;2.85;;;2.42;;
10309;SDS011;5200;43.236;27.986;2022-12-18T00:21:45;3.10;;;2.85;;
10309;SDS011;5200;43.236;27.986;2022-12-18T00:24:12;2.95;;;2.38;;
10309;SDS011;5200;43.236;27.986;2022-12-18T00:26:40;3.00;;;2.65;;
10309;SDS011;5200;43.236;27.986;2022-12-18T00:29:08;2.25;;;2.03;;
10309;SDS011;5200;43.236;27.986;2022-12-18T00:31:39;3.05;;;2.40;;
10309;SDS011;5200;43.236;27.986;2022-12-18T00:34:06;2.20;;;2.10;;
10309;SDS011;5200;43.236;27.986;2022-12-18T00:36:34;1.95;;;1.85;;
10309;SDS011;5200;43.236;27.986;2022-12-18T00:39:02;2.80;;;1.98;;
10309;SDS011;5200;43.236;27.986;2022-12-18T00:41:30;3.90;;;2.17;;
10309;SDS011;5200;43.236;27.986;2022-12-18T00:44:16;2.35;;;2.10;;
10309;SDS011;5200;43.236;27.986;2022-12-18T00:46:44;2.28;;;2.00;;
10309;SDS011;5200;43.236;27.986;2022-12-18T00:49:12;2.92;;;2.15;;
10309;SDS011;5200;43.236;27.986;2022-12-18T00:51:40;2.60;;;2.30;;
10309;SDS011;5200;43.236;27.986;2022-12-18T00:54:07;2.72;;;2.05;;
10309;SDS011;5200;43.236;27.986;2022-12-18T00:56:35;2.38;;;2.10;;
10309;SDS011;5200;43.236;27.986;2022-12-18T00:59:03;1.90;;;1.80;;
10309;SDS011;5200;43.236;27.986;2022-12-18T01:01:31;2.28;;;2.10;;
10309;SDS011;5200;43.236;27.986;2022-12-18T01:03:59;2.05;;;1.80;;
10309;SDS011;5200;43.236;27.986;2022-12-18T01:06:26;2.17;;;1.98;;
10309;SDS011;5200;43.236;27.986;2022-12-18T01:08:53;4.38;;;2.30;;
10309;SDS011;5200;43.236;27.986;2022-12-18T01:11:20;1.90;;;1.73;;
10309;SDS011;5200;43.236;27.986;2022-12-18T01:13:48;2.28;;;2.08;;
10309;SDS011;5200;43.236;27.986;2022-12-18T01:16:16;2.90;;;2.10;;
10309;SDS011;5200;43.236;27.986;2022-12-18T01:18:45;6.25;;;2.30;;
10309;SDS011;5200;43.236;27.986;2022-12-18T01:21:16;2.65;;;2.20;;
10309;SDS011;5200;43.236;27.986;2022-12-18T01:23:43;2.33;;;2.13;;
10309;SDS011;5200;43.236;27.986;2022-12-18T01:26:12;2.03;;;1.88;;
10309;SDS011;5200;43.236;27.986;2022-12-18T01:28:40;2.20;;;2.00;;
10309;SDS011;5200;43.236;27.986;2022-12-18T01:31:14;3.35;;;2.08;;
10309;SDS011;5200;43.236;27.986;2022-12-18T01:33:44;2.35;;;2.10;;
10309;SDS011;5200;43.236;27.986;2022-12-18T01:36:16;2.08;;;1.92;;
10309;SDS011;5200;43.236;27.986;2022-12-18T01:38:44;2.25;;;2.05;;
10309;SDS011;5200;43.236;27.986;2022-12-18T01:41:11;2.33;;;2.13;;
10309;SDS011;5200;43.236;27.986;2022-12-18T01:43:42;2.47;;;2.20;;
10309;SDS011;5200;43.236;27.986;2022-12-18T01:46:10;3.50;;;2.50;;
10309;SDS011;5200;43.236;27.986;2022-12-18T01:48:37;2.50;;;2.30;;
10309;SDS011;5200;43.236;27.986;2022-12-18T01:51:07;2.13;;;1.92;;
10309;SDS011;5200;43.236;27.986;2022-12-18T01:53:36;2.40;;;2.20;;
10309;SDS011;5200;43.236;27.986;2022-12-18T01:56:05;2.40;;;2.20;;
10309;SDS011;5200;43.236;27.986;2022-12-18T01:58:35;3.20;;;2.45;;
10309;SDS011;5200;43.236;27.986;2022-12-18T02:01:08;3.58;;;2.53;;
10309;SDS011;5200;43.236;27.986;2022-12-18T02:03:35;2.47;;;2.22;;
10309;SDS011;5200;43.236;27.986;2022-12-18T02:06:05;2.20;;;1.83;;
10309;SDS011;5200;43.236;27.986;2022-12-18T02:08:40;2.42;;;2.20;;
10309;SDS011;5200;43.236;27.986;2022-12-18T02:11:15;2.45;;;2.17;;
10309;SDS011;5200;43.236;27.986;2022-12-18T02:13:50;3.65;;;2.80;;
10309;SDS011;5200;43.236;27.986;2022-12-18T02:16:29;3.75;;;2.13;;
10309;SDS011;5200;43.236;27.986;2022-12-18T02:19:06;2.30;;;2.05;;
10309;SDS011;5200;43.236;27.986;2022-12-18T02:21:44;2.47;;;2.15;;
10309;SDS011;5200;43.236;27.986;2022-12-18T02:24:18;2.72;;;2.53;;
10309;SDS011;5200;43.236;27.986;2022-12-18T02:26:58;2.60;;;2.28;;
10309;SDS011;5200;43.236;27.986;2022-12-18T02:29:29;2.90;;;2.47;;
10309;SDS011;5200;43.236;27.986;2022-12-18T02:32:00;3.35;;;2.40;;
10309;SDS011;5200;43.236;27.986;2022-12-18T02:34:31;2.58;;;2.03;;
10309;SDS011;5200;43.236;27.986;2022-12-18T02:37:04;2.42;;;2.20;;
10309;SDS011;5200;43.236;27.986;2022-12-18T02:39:34;2.70;;;2.38;;
10309;SDS011;5200;43.236;27.986;2022-12-18T02:42:04;2.20;;;2.00;;
10309;SDS011;5200;43.236;27.986;2022-12-18T02:44:33;3.97;;;2.70;;
10309;SDS011;5200;43.236;27.986;2022-12-18T02:47:00;2.78;;;2.45;;
10309;SDS011;5200;43.236;27.986;2022-12-18T02:49:31;2.33;;;2.13;;
10309;SDS011;5200;43.236;27.986;2022-12-18T02:52:05;2.47;;;2.05;;
10309;SDS011;5200;43.236;27.986;2022-12-18T02:54:43;2.53;;;2.25;;
10309;SDS011;5200;43.236;27.986;2022-12-18T02:57:23;1.85;;;1.75;;
10309;SDS011;5200;43.236;27.986;2022-12-18T02:59:58;2.15;;;1.90;;
10309;SDS011;5200;43.236;27.986;2022-12-18T03:02:33;1.75;;;1.65;;
10309;SDS011;5200;43.236;27.986;2022-12-18T03:05:06;1.98;;;1.77;;
10309;SDS011;5200;43.236;27.986;2022-12-18T03:07:39;2.50;;;2.00;;
10309;SDS011;5200;43.236;27.986;2022-12-18T03:10:12;2.05;;;1.85;;
10309;SDS011;5200;43.236;27.986;2022-12-18T03:12:44;2.33;;;2.13;;
10309;SDS011;5200;43.236;27.986;2022-12-18T03:15:18;2.20;;;2.00;;
10309;SDS011;5200;43.236;27.986;2022-12-18T03:17:50;2.50;;;2.28;;
10309;SDS011;5200;43.236;27.986;2022-12-18T03:20:22;2.13;;;1.90;;
10309;SDS011;5200;43.236;27.986;2022-12-18T03:22:53;2.15;;;1.95;;
10309;SDS011;5200;43.236;27.986;2022-12-18T03:25:26;2.70;;;2.05;;
10309;SDS011;5200;43.236;27.986;2022-12-18T03:27:56;2.30;;;2.00;;
10309;SDS011;5200;43.236;27.986;2022-12-18T03:30:26;2.30;;;2.10;;
10309;SDS011;5200;43.236;27.986;2022-12-18T03:32:56;2.13;;;2.00;;
10309;SDS011;5200;43.236;27.986;2022-12-18T03:35:29;2.22;;;2.03;;
10309;SDS011;5200;43.236;27.986;2022-12-18T03:38:01;2.50;;;2.15;;
10309;SDS011;5200;43.236;27.986;2022-12-18T03:40:29;2.42;;;2.22;;
10309;SDS011;5200;43.236;27.986;2022-12-18T03:43:08;2.70;;;2.47;;
10309;SDS011;5200;43.236;27.986;2022-12-18T03:45:44;2.22;;;2.03;;
10309;SDS011;5200;43.236;27.986;2022-12-18T03:48:19;3.17;;;2.42;;
10309;SDS011;5200;43.236;27.986;2022-12-18T03:50:53;5.43;;;4.97;;
10309;SDS011;5200;43.236;27.986;2022-12-18T03:53:25;3.38;;;2.60;;
10309;SDS011;5200;43.236;27.986;2022-12-18T03:55:59;3.78;;;2.63;;
10309;SDS011;5200;43.236;27.986;2022-12-18T03:58:29;3.35;;;2.65;;
10309;SDS011;5200;43.236;27.986;2022-12-18T04:01:00;2.38;;;2.17;;
10309;SDS011;5200;43.236;27.986;2022-12-18T04:03:30;3.95;;;3.35;;
10309;SDS011;5200;43.236;27.986;2022-12-18T04:05:59;3.35;;;2.35;;
10309;SDS011;5200;43.236;27.986;2022-12-18T04:08:27;3.97;;;3.22;;
10309;SDS011;5200;43.236;27.986;2022-12-18T04:10:55;3.67;;;2.97;;
10309;SDS011;5200;43.236;27.986;2022-12-18T04:13:22;7.68;;;5.25;;
10309;SDS011;5200;43.236;27.986;2022-12-18T04:15:51;3.35;;;2.97;;
10309;SDS011;5200;43.236;27.986;2022-12-18T04:18:18;5.78;;;3.28;;
10309;SDS011;5200;43.236;27.986;2022-12-18T04:20:45;3.90;;;2.83;;
10309;SDS011;5200;43.236;27.986;2022-12-18T04:23:12;3.22;;;2.80;;
10309;SDS011;5200;43.236;27.986;2022-12-18T04:25:38;3.13;;;2.80;;
10309;SDS011;5200;43.236;27.986;2022-12-18T04:28:05;4.13;;;2.95;;
10309;SDS011;5200;43.236;27.986;2022-12-18T04:30:32;5.95;;;3.17;;
10309;SDS011;5200;43.236;27.986;2022-12-18T04:33:01;6.18;;;3.63;;
10309;SDS011;5200;43.236;27.986;2022-12-18T04:35:27;3.28;;;2.95;;
10309;SDS011;5200;43.236;27.986;2022-12-18T04:37:55;7.45;;;3.58;;
10309;SDS011;5200;43.236;27.986;2022-12-18T04:40:28;4.65;;;3.72;;
10309;SDS011;5200;43.236;27.986;2022-12-18T04:42:54;5.18;;;3.97;;
10309;SDS011;5200;43.236;27.986;2022-12-18T04:45:21;5.75;;;4.07;;
10309;SDS011;5200;43.236;27.986;2022-12-18T04:47:48;4.40;;;3.53;;
10309;SDS011;5200;43.236;27.986;2022-12-18T04:50:16;5.35;;;4.18;;
10309;SDS011;5200;43.236;27.986;2022-12-18T04:52:43;7.57;;;4.53;;
10309;SDS011;5200;43.236;27.986;2022-12-18T04:55:10;10.15;;;5.15;;
10309;SDS011;5200;43.236;27.986;2022-12-18T04:57:37;7.47;;;4.47;;
10309;SDS011;5200;43.236;27.986;2022-12-18T05:00:04;5.45;;;4.50;;
10309;SDS011;5200;43.236;27.986;2022-12-18T05:02:32;5.40;;;4.57;;
10309;SDS011;5200;43.236;27.986;2022-12-18T05:04:59;6.43;;;4.38;;
10309;SDS011;5200;43.236;27.986;2022-12-18T05:07:27;9.90;;;4.78;;
10309;SDS011;5200;43.236;27.986;2022-12-18T05:09:54;6.60;;;4.72;;
10309;SDS011;5200;43.236;27.986;2022-12-18T05:12:21;7.20;;;5.10;;
10309;SDS011;5200;43.236;27.986;2022-12-18T05:14:48;7.70;;;5.63;;
10309;SDS011;5200;43.236;27.986;2022-12-18T05:17:14;8.13;;;5.90;;
10309;SDS011;5200;43.236;27.986;2022-12-18T05:19:41;7.25;;;5.38;;
10309;SDS011;5200;43.236;27.986;2022-12-18T05:22:08;7.85;;;6.07;;
10309;SDS011;5200;43.236;27.986;2022-12-18T05:24:37;8.07;;;6.03;;
10309;SDS011;5200;43.236;27.986;2022-12-18T05:27:04;14.20;;;12.73;;
10309;SDS011;5200;43.236;27.986;2022-12-18T05:29:31;10.25;;;6.70;;
10309;SDS011;5200;43.236;27.986;2022-12-18T05:31:58;11.25;;;8.15;;
10309;SDS011;5200;43.236;27.986;2022-12-18T05:34:25;12.43;;;8.77;;
10309;SDS011;5200;43.236;27.986;2022-12-18T05:36:51;12.05;;;7.57;;
10309;SDS011;5200;43.236;27.986;2022-12-18T05:39:18;11.43;;;7.60;;
10309;SDS011;5200;43.236;27.986;2022-12-18T05:41:46;11.98;;;8.10;;
10309;SDS011;5200;43.236;27.986;2022-12-18T05:44:13;10.43;;;7.15;;
10309;SDS011;5200;43.236;27.986;2022-12-18T05:46:40;13.98;;;8.25;;
10309;SDS011;5200;43.236;27.986;2022-12-18T05:49:07;14.95;;;8.43;;
10309;SDS011;5200;43.236;27.986;2022-12-18T05:51:34;12.35;;;8.00;;
10309;SDS011;5200;43.236;27.986;2022-12-18T05:54:01;11.45;;;8.05;;
10309;SDS011;5200;43.236;27.986;2022-12-18T05:56:28;16.02;;;8.65;;
10309;SDS011;5200;43.236;27.986;2022-12-18T05:58:56;12.70;;;8.32;;
10309;SDS011;5200;43.236;27.986;2022-12-18T06:01:23;12.05;;;8.38;;
10309;SDS011;5200;43.236;27.986;2022-12-18T06:03:52;13.82;;;8.63;;
10309;SDS011;5200;43.236;27.986;2022-12-18T06:06:20;14.20;;;9.48;;
10309;SDS011;5200;43.236;27.986;2022-12-18T06:08:48;14.55;;;9.65;;
10309;SDS011;5200;43.236;27.986;2022-12-18T06:11:17;15.15;;;10.95;;
10309;SDS011;5200;43.236;27.986;2022-12-18T06:13:45;16.50;;;10.57;;
10309;SDS011;5200;43.236;27.986;2022-12-18T06:16:14;18.27;;;10.95;;
10309;SDS011;5200;43.236;27.986;2022-12-18T06:18:40;16.73;;;10.50;;
10309;SDS011;5200;43.236;27.986;2022-12-18T06:21:07;16.10;;;10.65;;
10309;SDS011;5200;43.236;27.986;2022-12-18T06:23:34;17.17;;;11.65;;
10309;SDS011;5200;43.236;27.986;2022-12-18T06:26:03;16.88;;;10.35;;
10309;SDS011;5200;43.236;27.986;2022-12-18T06:28:31;17.77;;;11.48;;
10309;SDS011;5200;43.236;27.986;2022-12-18T06:30:58;18.83;;;11.85;;
10309;SDS011;5200;43.236;27.986;2022-12-18T06:33:27;17.02;;;12.23;;
10309;SDS011;5200;43.236;27.986;2022-12-18T06:35:54;17.95;;;11.68;;
10309;SDS011;5200;43.236;27.986;2022-12-18T06:38:26;19.98;;;11.65;;
10309;SDS011;5200;43.236;27.986;2022-12-18T06:40:53;19.90;;;11.65;;
10309;SDS011;5200;43.236;27.986;2022-12-18T06:43:20;15.63;;;10.57;;
10309;SDS011;5200;43.236;27.986;2022-12-18T06:45:47;18.35;;;11.50;;
10309;SDS011;5200;43.236;27.986;2022-12-18T06:48:17;22.40;;;14.05;;
10309;SDS011;5200;43.236;27.986;2022-12-18T06:50:46;19.10;;;11.93;;
10309;SDS011;5200;43.236;27.986;2022-12-18T06:53:13;20.02;;;12.93;;
10309;SDS011;5200;43.236;27.986;2022-12-18T06:55:40;21.55;;;12.63;;
10309;SDS011;5200;43.236;27.986;2022-12-18T06:58:07;16.75;;;10.30;;
10309;SDS011;5200;43.236;27.986;2022-12-18T07:00:34;15.68;;;12.02;;
10309;SDS011;5200;43.236;27.986;2022-12-18T07:03:01;20.17;;;12.27;;
10309;SDS011;5200;43.236;27.986;2022-12-18T07:05:28;20.20;;;12.70;;
10309;SDS011;5200;43.236;27.986;2022-12-18T07:07:56;18.50;;;10.82;;
10309;SDS011;5200;43.236;27.986;2022-12-18T07:10:23;22.08;;;13.40;;
10309;SDS011;5200;43.236;27.986;2022-12-18T07:12:50;19.58;;;12.55;;
10309;SDS011;5200;43.236;27.986;2022-12-18T07:15:18;24.70;;;13.05;;
10309;SDS011;5200;43.236;27.986;2022-12-18T07:17:44;22.35;;;13.60;;
10309;SDS011;5200;43.236;27.986;2022-12-18T07:20:11;20.05;;;13.07;;
10309;SDS011;5200;43.236;27.986;2022-12-18T07:22:38;22.13;;;14.52;;
10309;SDS011;5200;43.236;27.986;2022-12-18T07:25:07;19.60;;;12.05;;
10309;SDS011;5200;43.236;27.986;2022-12-18T07:27:34;22.40;;;13.70;;
10309;SDS011;5200;43.236;27.986;2022-12-18T07:30:01;24.23;;;13.57;;
10309;SDS011;5200;43.236;27.986;2022-12-18T07:32:27;22.13;;;13.50;;
10309;SDS011;5200;43.236;27.986;2022-12-18T07:34:56;23.73;;;13.15;;
10309;SDS011;5200;43.236;27.986;2022-12-18T07:37:23;22.65;;;13.40;;
10309;SDS011;5200;43.236;27.986;2022-12-18T07:39:50;21.25;;;13.57;;
10309;SDS011;5200;43.236;27.986;2022-12-18T07:42:18;24.83;;;14.55;;
10309;SDS011;5200;43.236;27.986;2022-12-18T07:44:57;23.23;;;12.48;;
10309;SDS011;5200;43.236;27.986;2022-12-18T07:47:23;19.30;;;13.07;;
10309;SDS011;5200;43.236;27.986;2022-12-18T07:49:50;18.58;;;11.68;;
10309;SDS011;5200;43.236;27.986;2022-12-18T07:52:17;19.67;;;11.75;;
10309;SDS011;5200;43.236;27.986;2022-12-18T07:54:44;20.30;;;12.07;;
10309;SDS011;5200;43.236;27.986;2022-12-18T07:57:15;24.45;;;13.77;;
10309;SDS011;5200;43.236;27.986;2022-12-18T07:59:43;21.98;;;13.10;;
10309;SDS011;5200;43.236;27.986;2022-12-18T08:02:10;23.88;;;14.15;;
10309;SDS011;5200;43.236;27.986;2022-12-18T08:04:37;22.30;;;12.55;;
10309;SDS011;5200;43.236;27.986;2022-12-18T08:07:04;20.63;;;12.60;;
10309;SDS011;5200;43.236;27.986;2022-12-18T08:09:31;19.35;;;13.05;;
10309;SDS011;5200;43.236;27.986;2022-12-18T08:11:58;21.13;;;13.75;;
10309;SDS011;5200;43.236;27.986;2022-12-18T08:14:24;21.92;;;12.88;;
10309;SDS011;5200;43.236;27.986;2022-12-18T08:16:53;24.52;;;13.43;;
10309;SDS011;5200;43.236;27.986;2022-12-18T08:19:20;21.75;;;13.77;;
10309;SDS011;5200;43.236;27.986;2022-12-18T08:21:46;22.42;;;13.82;;
10309;SDS011;5200;43.236;27.986;2022-12-18T08:24:13;25.95;;;13.95;;
10309;SDS011;5200;43.236;27.986;2022-12-18T08:26:40;21.08;;;14.00;;
10309;SDS011;5200;43.236;27.986;2022-12-18T08:29:08;20.33;;;13.93;;
10309;SDS011;5200;43.236;27.986;2022-12-18T08:31:35;19.77;;;13.45;;
10309;SDS011;5200;43.236;27.986;2022-12-18T08:34:03;20.38;;;14.07;;
10309;SDS011;5200;43.236;27.986;2022-12-18T08:36:30;23.02;;;14.10;;
10309;SDS011;5200;43.236;27.986;2022-12-18T08:38:57;20.85;;;12.75;;
10309;SDS011;5200;43.236;27.986;2022-12-18T08:41:24;21.40;;;13.88;;
10309;SDS011;5200;43.236;27.986;2022-12-18T08:43:51;23.50;;;13.88;;
10309;SDS011;5200;43.236;27.986;2022-12-18T08:46:35;21.45;;;13.80;;
10309;SDS011;5200;43.236;27.986;2022-12-18T08:49:05;20.42;;;13.05;;
10309;SDS011;5200;43.236;27.986;2022-12-18T08:51:33;21.25;;;12.68;;
10309;SDS011;5200;43.236;27.986;2022-12-18T08:54:01;21.60;;;13.32;;
10309;SDS011;5200;43.236;27.986;2022-12-18T08:56:28;23.45;;;14.45;;
10309;SDS011;5200;43.236;27.986;2022-12-18T08:58:55;26.80;;;13.60;;
10309;SDS011;5200;43.236;27.986;2022-12-18T09:01:23;20.98;;;12.73;;
10309;SDS011;5200;43.236;27.986;2022-12-18T09:03:50;24.67;;;14.18;;
10309;SDS011;5200;43.236;27.986;2022-12-18T09:06:19;22.30;;;13.77;;
10309;SDS011;5200;43.236;27.986;2022-12-18T09:08:47;20.00;;;13.02;;
10309;SDS011;5200;43.236;27.986;2022-12-18T09:11:14;25.35;;;15.98;;
10309;SDS011;5200;43.236;27.986;2022-12-18T09:13:47;23.20;;;13.32;;
10309;SDS011;5200;43.236;27.986;2022-12-18T09:16:14;19.98;;;13.10;;
10309;SDS011;5200;43.236;27.986;2022-12-18T09:18:41;22.48;;;14.27;;
10309;SDS011;5200;43.236;27.986;2022-12-18T09:21:09;20.65;;;13.00;;
10309;SDS011;5200;43.236;27.986;2022-12-18T09:23:38;19.85;;;12.50;;
10309;SDS011;5200;43.236;27.986;2022-12-18T09:26:05;25.67;;;15.15;;
10309;SDS011;5200;43.236;27.986;2022-12-18T09:28:32;21.30;;;14.25;;
10309;SDS011;5200;43.236;27.986;2022-12-18T09:31:02;21.92;;;14.25;;
10309;SDS011;5200;43.236;27.986;2022-12-18T09:33:30;22.48;;;14.45;;
10309;SDS011;5200;43.236;27.986;2022-12-18T09:35:57;19.67;;;12.85;;
10309;SDS011;5200;43.236;27.986;2022-12-18T09:38:27;21.58;;;15.43;;
10309;SDS011;5200;43.236;27.986;2022-12-18T09:40:56;31.88;;;23.08;;
10309;SDS011;5200;43.236;27.986;2022-12-18T09:43:27;20.45;;;13.27;;
10309;SDS011;5200;43.236;27.986;2022-12-18T09:46:08;23.73;;;14.25;;
10309;SDS011;5200;43.236;27.986;2022-12-18T09:48:42;25.00;;;15.60;;
10309;SDS011;5200;43.236;27.986;2022-12-18T09:51:13;22.83;;;14.07;;
10309;SDS011;5200;43.236;27.986;2022-12-18T09:53:42;22.60;;;14.82;;
10309;SDS011;5200;43.236;27.986;2022-12-18T09:56:16;27.27;;;14.18;;
10309;SDS011;5200;43.236;27.986;2022-12-18T09:58:48;26.27;;;16.40;;
10309;SDS011;5200;43.236;27.986;2022-12-18T10:01:21;24.35;;;14.55;;
10309;SDS011;5200;43.236;27.986;2022-12-18T10:03:49;24.20;;;14.05;;
10309;SDS011;5200;43.236;27.986;2022-12-18T10:06:19;22.23;;;14.43;;
10309;SDS011;5200;43.236;27.986;2022-12-18T10:08:51;21.98;;;13.43;;
10309;SDS011;5200;43.236;27.986;2022-12-18T10:11:28;22.63;;;14.60;;
10309;SDS011;5200;43.236;27.986;2022-12-18T10:14:07;19.45;;;12.43;;
10309;SDS011;5200;43.236;27.986;2022-12-18T10:16:41;25.83;;;14.98;;
10309;SDS011;5200;43.236;27.986;2022-12-18T10:19:20;19.33;;;12.25;;
10309;SDS011;5200;43.236;27.986;2022-12-18T10:21:58;22.77;;;15.13;;
10309;SDS011;5200;43.236;27.986;2022-12-18T10:24:37;21.48;;;13.13;;
10309;SDS011;5200;43.236;27.986;2022-12-18T10:27:14;28.38;;;15.43;;
10309;SDS011;5200;43.236;27.986;2022-12-18T10:29:42;22.05;;;14.13;;
10309;SDS011;5200;43.236;27.986;2022-12-18T10:32:13;24.60;;;14.45;;
10309;SDS011;5200;43.236;27.986;2022-12-18T10:34:44;27.42;;;16.42;;
10309;SDS011;5200;43.236;27.986;2022-12-18T10:37:12;28.88;;;16.10;;
10309;SDS011;5200;43.236;27.986;2022-12-18T10:39:43;22.73;;;15.15;;
10309;SDS011;5200;43.236;27.986;2022-12-18T10:45:01;26.75;;;14.65;;
10309;SDS011;5200;43.236;27.986;2022-12-18T10:47:29;29.85;;;17.42;;
10309;SDS011;5200;43.236;27.986;2022-12-18T10:49:57;28.55;;;17.63;;
10309;SDS011;5200;43.236;27.986;2022-12-18T10:52:24;29.15;;;16.13;;
10309;SDS011;5200;43.236;27.986;2022-12-18T10:54:53;24.23;;;14.55;;
10309;SDS011;5200;43.236;27.986;2022-12-18T10:57:31;32.67;;;17.75;;
10309;SDS011;5200;43.236;27.986;2022-12-18T11:00:20;27.67;;;16.63;;
10309;SDS011;5200;43.236;27.986;2022-12-18T11:02:50;27.17;;;16.77;;
10309;SDS011;5200;43.236;27.986;2022-12-18T11:05:24;29.33;;;16.60;;
10309;SDS011;5200;43.236;27.986;2022-12-18T11:07:54;27.52;;;16.45;;
10309;SDS011;5200;43.236;27.986;2022-12-18T11:10:22;30.25;;;16.95;;
10309;SDS011;5200;43.236;27.986;2022-12-18T11:12:53;30.90;;;18.10;;
10309;SDS011;5200;43.236;27.986;2022-12-18T11:15:21;26.38;;;17.02;;
10309;SDS011;5200;43.236;27.986;2022-12-18T11:17:53;30.25;;;17.15;;
10309;SDS011;5200;43.236;27.986;2022-12-18T11:20:21;29.92;;;17.52;;
10309;SDS011;5200;43.236;27.986;2022-12-18T11:22:54;33.15;;;17.60;;
10309;SDS011;5200;43.236;27.986;2022-12-18T11:25:22;30.75;;;17.40;;
10309;SDS011;5200;43.236;27.986;2022-12-18T11:27:51;35.05;;;18.60;;
10309;SDS011;5200;43.236;27.986;2022-12-18T11:30:24;29.88;;;18.20;;
10309;SDS011;5200;43.236;27.986;2022-12-18T11:32:53;33.95;;;19.90;;
10309;SDS011;5200;43.236;27.986;2022-12-18T11:35:25;32.47;;;18.45;;
10309;SDS011;5200;43.236;27.986;2022-12-18T11:38:02;32.88;;;17.75;;
10309;SDS011;5200;43.236;27.986;2022-12-18T11:40:34;30.08;;;18.00;;
10309;SDS011;5200;43.236;27.986;2022-12-18T11:43:04;33.85;;;16.10;;
10309;SDS011;5200;43.236;27.986;2022-12-18T11:45:40;21.75;;;14.98;;
10309;SDS011;5200;43.236;27.986;2022-12-18T11:48:12;27.45;;;15.90;;
10309;SDS011;5200;43.236;27.986;2022-12-18T11:50:47;32.97;;;15.93;;
10309;SDS011;5200;43.236;27.986;2022-12-18T11:53:16;33.25;;;17.92;;
10309;SDS011;5200;43.236;27.986;2022-12-18T11:55:47;25.35;;;14.77;;
10309;SDS011;5200;43.236;27.986;2022-12-18T11:58:24;26.00;;;14.55;;
10309;SDS011;5200;43.236;27.986;2022-12-18T12:01:06;22.75;;;13.68;;
10309;SDS011;5200;43.236;27.986;2022-12-18T12:06:39;21.25;;;13.23;;
10309;SDS011;5200;43.236;27.986;2022-12-18T12:09:14;20.75;;;13.63;;
10309;SDS011;5200;43.236;27.986;2022-12-18T12:11:55;18.45;;;9.82;;
10309;SDS011;5200;43.236;27.986;2022-12-18T12:14:36;19.48;;;12.10;;
10309;SDS011;5200;43.236;27.986;2022-12-18T12:17:13;23.77;;;13.95;;
10309;SDS011;5200;43.236;27.986;2022-12-18T12:19:51;22.17;;;13.25;;
10309;SDS011;5200;43.236;27.986;2022-12-18T12:22:25;17.50;;;10.20;;
10309;SDS011;5200;43.236;27.986;2022-12-18T12:25:02;17.50;;;9.38;;
10309;SDS011;5200;43.236;27.986;2022-12-18T12:27:42;14.88;;;8.30;;
10309;SDS011;5200;43.236;27.986;2022-12-18T12:30:18;10.70;;;7.03;;
10309;SDS011;5200;43.236;27.986;2022-12-18T12:32:58;10.52;;;5.25;;
10309;SDS011;5200;43.236;27.986;2022-12-18T12:35:41;8.10;;;6.53;;
10309;SDS011;5200;43.236;27.986;2022-12-18T12:38:14;7.70;;;6.03;;
10309;SDS011;5200;43.236;27.986;2022-12-18T12:40:48;7.88;;;6.15;;
10309;SDS011;5200;43.236;27.986;2022-12-18T12:43:22;8.75;;;6.05;;
10309;SDS011;5200;43.236;27.986;2022-12-18T12:45:55;11.85;;;10.55;;
10309;SDS011;5200;43.236;27.986;2022-12-18T12:48:31;5.88;;;4.40;;
10309;SDS011;5200;43.236;27.986;2022-12-18T12:51:08;9.38;;;6.45;;
10309;SDS011;5200;43.236;27.986;2022-12-18T12:53:39;8.35;;;5.88;;
10309;SDS011;5200;43.236;27.986;2022-12-18T12:56:08;9.38;;;6.25;;
10309;SDS011;5200;43.236;27.986;2022-12-18T12:58:39;10.00;;;6.95;;
10309;SDS011;5200;43.236;27.986;2022-12-18T13:01:13;9.68;;;7.93;;
10309;SDS011;5200;43.236;27.986;2022-12-18T13:03:54;9.32;;;6.82;;
10309;SDS011;5200;43.236;27.986;2022-12-18T13:06:36;9.30;;;5.95;;
10309;SDS011;5200;43.236;27.986;2022-12-18T13:09:08;8.75;;;6.28;;
10309;SDS011;5200;43.236;27.986;2022-12-18T13:11:36;8.13;;;6.47;;
10309;SDS011;5200;43.236;27.986;2022-12-18T13:14:24;8.65;;;6.50;;
10309;SDS011;5200;43.236;27.986;2022-12-18T13:20:04;9.95;;;6.40;;
10309;SDS011;5200;43.236;27.986;2022-12-18T13:22:39;9.57;;;5.57;;
10309;SDS011;5200;43.236;27.986;2022-12-18T13:25:28;8.27;;;5.53;;
10309;SDS011;5200;43.236;27.986;2022-12-18T13:27:59;10.10;;;6.22;;
10309;SDS011;5200;43.236;27.986;2022-12-18T13:30:45;4.68;;;3.78;;
10309;SDS011;5200;43.236;27.986;2022-12-18T13:36:16;9.93;;;7.40;;
10309;SDS011;5200;43.236;27.986;2022-12-18T13:39:09;9.63;;;6.18;;
10309;SDS011;5200;43.236;27.986;2022-12-18T13:41:37;7.03;;;5.38;;
10309;SDS011;5200;43.236;27.986;2022-12-18T13:44:11;12.18;;;5.63;;
10309;SDS011;5200;43.236;27.986;2022-12-18T13:46:42;9.68;;;7.00;;
10309;SDS011;5200;43.236;27.986;2022-12-18T13:49:18;9.82;;;6.15;;
10309;SDS011;5200;43.236;27.986;2022-12-18T13:51:52;8.80;;;4.63;;
10309;SDS011;5200;43.236;27.986;2022-12-18T13:54:23;8.30;;;5.63;;
10309;SDS011;5200;43.236;27.986;2022-12-18T13:56:55;9.68;;;6.80;;
10309;SDS011;5200;43.236;27.986;2022-12-18T13:59:22;10.25;;;6.97;;
10309;SDS011;5200;43.236;27.986;2022-12-18T14:01:53;18.65;;;14.77;;
10309;SDS011;5200;43.236;27.986;2022-12-18T14:04:22;16.60;;;7.60;;
10309;SDS011;5200;43.236;27.986;2022-12-18T14:06:54;11.82;;;7.65;;
10309;SDS011;5200;43.236;27.986;2022-12-18T14:09:25;11.15;;;6.70;;
10309;SDS011;5200;43.236;27.986;2022-12-18T14:11:55;12.30;;;7.50;;
10309;SDS011;5200;43.236;27.986;2022-12-18T14:14:44;8.63;;;6.43;;
10309;SDS011;5200;43.236;27.986;2022-12-18T14:17:12;10.05;;;6.85;;
10309;SDS011;5200;43.236;27.986;2022-12-18T14:19:41;9.95;;;7.10;;
10309;SDS011;5200;43.236;27.986;2022-12-18T14:22:15;9.75;;;6.50;;
10309;SDS011;5200;43.236;27.986;2022-12-18T14:24:44;9.52;;;6.30;;
10309;SDS011;5200;43.236;27.986;2022-12-18T14:27:12;12.05;;;7.43;;
10309;SDS011;5200;43.236;27.986;2022-12-18T14:29:47;13.38;;;7.95;;
10309;SDS011;5200;43.236;27.986;2022-12-18T14:32:14;10.05;;;7.15;;
10309;SDS011;5200;43.236;27.986;2022-12-18T14:34:43;15.85;;;7.75;;
10309;SDS011;5200;43.236;27.986;2022-12-18T14:37:10;10.25;;;7.25;;
10309;SDS011;5200;43.236;27.986;2022-12-18T14:39:40;13.50;;;7.93;;
10309;SDS011;5200;43.236;27.986;2022-12-18T14:42:17;11.57;;;7.93;;
10309;SDS011;5200;43.236;27.986;2022-12-18T14:44:44;11.60;;;8.13;;
10309;SDS011;5200;43.236;27.986;2022-12-18T14:47:13;13.65;;;8.77;;
10309;SDS011;5200;43.236;27.986;2022-12-18T14:49:41;13.55;;;10.05;;
10309;SDS011;5200;43.236;27.986;2022-12-18T14:52:13;13.00;;;8.82;;
10309;SDS011;5200;43.236;27.986;2022-12-18T14:54:50;24.63;;;14.63;;
10309;SDS011;5200;43.236;27.986;2022-12-18T14:57:20;10.15;;;7.10;;
10309;SDS011;5200;43.236;27.986;2022-12-18T14:59:49;10.32;;;7.40;;
10309;SDS011;5200;43.236;27.986;2022-12-18T15:02:18;13.30;;;8.80;;
10309;SDS011;5200;43.236;27.986;2022-12-18T15:04:53;13.02;;;8.25;;
10309;SDS011;5200;43.236;27.986;2022-12-18T15:07:26;28.58;;;17.83;;